Morada, California
Current Conditions -  °F | °C
As of 6:55 PM on Thursday 27 Nov 2014 (Local Time) from KSCK Reporting Station
Haze Haze  
Wind Chill: 54°   Ceiling: Unl
Heat Index: 54°   Visibility: 3mi
Dew Point: 50°   Wind: 0mph
Humidity: 86%   Direction: NA
Pressure: 30.05"   Gusts: NA
Location:  38.0455°N, 121.227°W
Report Text: KSCK 280255Z 00000KT 3SM BR CLR 12/10 A3005 RMK AO2 SLP177 T01220100 56005
Loading
Personal Weather Stations






























Interactive Weather Map New forecast layout! Learn more

10-Day Weather Forecast

Advertisements
Track Severe Weather on mobile